sensor_id;sensor_type;location;lat;lon;timestamp;P1;durP1;ratioP1;P2;durP2;ratioP2
52946;SDS011;68773;40.400;17.260;2023-05-02T00:00:38;19.25;;;3.90;;
52946;SDS011;68773;40.400;17.260;2023-05-02T00:03:05;23.13;;;5.03;;
52946;SDS011;68773;40.400;17.260;2023-05-02T00:05:31;21.90;;;4.80;;
52946;SDS011;68773;40.400;17.260;2023-05-02T00:07:58;26.10;;;4.10;;
52946;SDS011;68773;40.400;17.260;2023-05-02T00:10:23;20.63;;;4.22;;
52946;SDS011;68773;40.400;17.260;2023-05-02T00:12:49;26.23;;;4.80;;
52946;SDS011;68773;40.400;17.260;2023-05-02T00:15:15;28.42;;;4.20;;
52946;SDS011;68773;40.400;17.260;2023-05-02T00:17:41;29.02;;;4.03;;
52946;SDS011;68773;40.400;17.260;2023-05-02T00:20:10;17.45;;;3.95;;
52946;SDS011;68773;40.400;17.260;2023-05-02T00:22:37;29.25;;;4.28;;
52946;SDS011;68773;40.400;17.260;2023-05-02T00:25:03;22.58;;;4.35;;
52946;SDS011;68773;40.400;17.260;2023-05-02T00:27:29;20.05;;;4.05;;
52946;SDS011;68773;40.400;17.260;2023-05-02T00:29:56;34.40;;;4.50;;
52946;SDS011;68773;40.400;17.260;2023-05-02T00:32:24;21.55;;;4.45;;
52946;SDS011;68773;40.400;17.260;2023-05-02T00:34:50;25.58;;;4.72;;
52946;SDS011;68773;40.400;17.260;2023-05-02T00:37:16;17.95;;;4.43;;
52946;SDS011;68773;40.400;17.260;2023-05-02T00:39:42;23.38;;;4.90;;
52946;SDS011;68773;40.400;17.260;2023-05-02T00:42:09;21.83;;;4.45;;
52946;SDS011;68773;40.400;17.260;2023-05-02T00:44:34;23.80;;;4.50;;
52946;SDS011;68773;40.400;17.260;2023-05-02T00:47:00;18.00;;;3.63;;
52946;SDS011;68773;40.400;17.260;2023-05-02T00:49:26;21.63;;;4.57;;
52946;SDS011;68773;40.400;17.260;2023-05-02T00:51:53;26.80;;;4.38;;
52946;SDS011;68773;40.400;17.260;2023-05-02T00:54:19;27.52;;;5.18;;
52946;SDS011;68773;40.400;17.260;2023-05-02T00:56:45;30.80;;;4.55;;
52946;SDS011;68773;40.400;17.260;2023-05-02T00:59:11;25.10;;;4.13;;
52946;SDS011;68773;40.400;17.260;2023-05-02T01:01:43;38.00;;;5.60;;
52946;SDS011;68773;40.400;17.260;2023-05-02T01:13:08;35.80;;;5.63;;
52946;SDS011;68773;40.400;17.260;2023-05-02T01:15:41;23.30;;;5.13;;
52946;SDS011;68773;40.400;17.260;2023-05-02T01:18:09;30.90;;;5.30;;
52946;SDS011;68773;40.400;17.260;2023-05-02T01:20:38;31.10;;;5.53;;
52946;SDS011;68773;40.400;17.260;2023-05-02T01:23:10;17.55;;;3.72;;
52946;SDS011;68773;40.400;17.260;2023-05-02T01:26:33;20.65;;;4.45;;
52946;SDS011;68773;40.400;17.260;2023-05-02T01:29:01;24.75;;;4.95;;
52946;SDS011;68773;40.400;17.260;2023-05-02T01:31:30;23.80;;;4.30;;
52946;SDS011;68773;40.400;17.260;2023-05-02T01:33:59;23.15;;;4.40;;
52946;SDS011;68773;40.400;17.260;2023-05-02T01:36:27;25.77;;;5.20;;
52946;SDS011;68773;40.400;17.260;2023-05-02T01:38:55;25.20;;;5.97;;
52946;SDS011;68773;40.400;17.260;2023-05-02T01:41:26;26.42;;;5.05;;
52946;SDS011;68773;40.400;17.260;2023-05-02T01:43:56;28.98;;;5.32;;
52946;SDS011;68773;40.400;17.260;2023-05-02T01:46:26;28.65;;;5.60;;
52946;SDS011;68773;40.400;17.260;2023-05-02T01:49:00;30.05;;;5.78;;
52946;SDS011;68773;40.400;17.260;2023-05-02T01:51:29;21.25;;;4.63;;
52946;SDS011;68773;40.400;17.260;2023-05-02T01:53:58;29.73;;;5.90;;
52946;SDS011;68773;40.400;17.260;2023-05-02T01:56:26;27.38;;;4.97;;
52946;SDS011;68773;40.400;17.260;2023-05-02T01:58:56;21.02;;;5.18;;
52946;SDS011;68773;40.400;17.260;2023-05-02T02:01:23;23.75;;;4.80;;
52946;SDS011;68773;40.400;17.260;2023-05-02T02:03:53;34.67;;;4.78;;
52946;SDS011;68773;40.400;17.260;2023-05-02T02:06:20;20.13;;;5.13;;
52946;SDS011;68773;40.400;17.260;2023-05-02T02:08:46;31.63;;;5.07;;
52946;SDS011;68773;40.400;17.260;2023-05-02T02:11:14;32.40;;;4.97;;
52946;SDS011;68773;40.400;17.260;2023-05-02T02:13:46;24.60;;;5.18;;
52946;SDS011;68773;40.400;17.260;2023-05-02T02:16:17;30.83;;;4.95;;
52946;SDS011;68773;40.400;17.260;2023-05-02T02:18:47;33.58;;;5.38;;
52946;SDS011;68773;40.400;17.260;2023-05-02T02:21:15;34.20;;;6.00;;
52946;SDS011;68773;40.400;17.260;2023-05-02T02:23:43;28.17;;;5.07;;
52946;SDS011;68773;40.400;17.260;2023-05-02T02:26:12;30.27;;;6.00;;
52946;SDS011;68773;40.400;17.260;2023-05-02T02:28:39;27.98;;;5.32;;
52946;SDS011;68773;40.400;17.260;2023-05-02T02:31:06;31.83;;;6.43;;
52946;SDS011;68773;40.400;17.260;2023-05-02T02:33:32;29.33;;;5.38;;
52946;SDS011;68773;40.400;17.260;2023-05-02T02:36:03;20.80;;;5.85;;
52946;SDS011;68773;40.400;17.260;2023-05-02T02:38:41;28.17;;;5.40;;
52946;SDS011;68773;40.400;17.260;2023-05-02T02:41:32;27.95;;;5.72;;
52946;SDS011;68773;40.400;17.260;2023-05-02T02:46:53;22.35;;;5.22;;
52946;SDS011;68773;40.400;17.260;2023-05-02T02:49:48;29.00;;;6.00;;
52946;SDS011;68773;40.400;17.260;2023-05-02T02:52:27;25.77;;;5.22;;
52946;SDS011;68773;40.400;17.260;2023-05-02T02:55:11;19.25;;;4.95;;
52946;SDS011;68773;40.400;17.260;2023-05-02T03:00:34;25.90;;;6.10;;
52946;SDS011;68773;40.400;17.260;2023-05-02T03:03:00;24.73;;;5.45;;
52946;SDS011;68773;40.400;17.260;2023-05-02T03:05:26;25.08;;;6.13;;
52946;SDS011;68773;40.400;17.260;2023-05-02T03:07:53;36.03;;;6.03;;
52946;SDS011;68773;40.400;17.260;2023-05-02T03:10:20;32.17;;;5.57;;
52946;SDS011;68773;40.400;17.260;2023-05-02T03:12:46;26.23;;;5.75;;
52946;SDS011;68773;40.400;17.260;2023-05-02T03:20:41;23.77;;;5.90;;
52946;SDS011;68773;40.400;17.260;2023-05-02T03:23:07;29.20;;;6.10;;
52946;SDS011;68773;40.400;17.260;2023-05-02T03:25:32;26.13;;;5.60;;
52946;SDS011;68773;40.400;17.260;2023-05-02T03:27:58;27.75;;;6.00;;
52946;SDS011;68773;40.400;17.260;2023-05-02T03:30:24;30.70;;;5.35;;
52946;SDS011;68773;40.400;17.260;2023-05-02T03:32:50;24.20;;;5.65;;
52946;SDS011;68773;40.400;17.260;2023-05-02T03:35:16;19.20;;;5.18;;
52946;SDS011;68773;40.400;17.260;2023-05-02T03:37:42;22.55;;;5.28;;
52946;SDS011;68773;40.400;17.260;2023-05-02T03:40:08;23.83;;;5.30;;
52946;SDS011;68773;40.400;17.260;2023-05-02T03:42:35;28.98;;;5.45;;
52946;SDS011;68773;40.400;17.260;2023-05-02T03:45:07;21.15;;;4.85;;
52946;SDS011;68773;40.400;17.260;2023-05-02T03:47:33;20.05;;;4.95;;
52946;SDS011;68773;40.400;17.260;2023-05-02T03:49:59;26.42;;;5.20;;
52946;SDS011;68773;40.400;17.260;2023-05-02T03:52:25;27.80;;;5.13;;
52946;SDS011;68773;40.400;17.260;2023-05-02T03:54:52;21.13;;;5.13;;
52946;SDS011;68773;40.400;17.260;2023-05-02T03:57:18;33.55;;;6.57;;
52946;SDS011;68773;40.400;17.260;2023-05-02T03:59:43;28.48;;;5.18;;
52946;SDS011;68773;40.400;17.260;2023-05-02T04:02:12;29.20;;;5.57;;
52946;SDS011;68773;40.400;17.260;2023-05-02T04:04:39;21.23;;;5.35;;
52946;SDS011;68773;40.400;17.260;2023-05-02T04:07:05;17.45;;;4.15;;
52946;SDS011;68773;40.400;17.260;2023-05-02T04:09:32;18.52;;;4.07;;
52946;SDS011;68773;40.400;17.260;2023-05-02T04:11:58;24.25;;;4.60;;
52946;SDS011;68773;40.400;17.260;2023-05-02T04:14:24;22.05;;;4.35;;
52946;SDS011;68773;40.400;17.260;2023-05-02T04:16:50;23.58;;;4.68;;
52946;SDS011;68773;40.400;17.260;2023-05-02T04:19:17;23.98;;;4.88;;
52946;SDS011;68773;40.400;17.260;2023-05-02T04:21:43;24.02;;;4.38;;
52946;SDS011;68773;40.400;17.260;2023-05-02T04:24:10;27.15;;;4.70;;
52946;SDS011;68773;40.400;17.260;2023-05-02T04:26:36;21.27;;;5.07;;
52946;SDS011;68773;40.400;17.260;2023-05-02T04:29:02;17.05;;;4.38;;
52946;SDS011;68773;40.400;17.260;2023-05-02T04:31:28;18.15;;;4.00;;
52946;SDS011;68773;40.400;17.260;2023-05-02T04:33:55;27.55;;;4.90;;
52946;SDS011;68773;40.400;17.260;2023-05-02T04:36:23;22.52;;;4.35;;
52946;SDS011;68773;40.400;17.260;2023-05-02T04:38:52;22.27;;;4.40;;
52946;SDS011;68773;40.400;17.260;2023-05-02T04:41:18;19.52;;;3.95;;
52946;SDS011;68773;40.400;17.260;2023-05-02T04:43:44;20.67;;;4.80;;
52946;SDS011;68773;40.400;17.260;2023-05-02T04:46:09;22.42;;;4.40;;
52946;SDS011;68773;40.400;17.260;2023-05-02T04:48:35;20.27;;;4.13;;
52946;SDS011;68773;40.400;17.260;2023-05-02T04:51:01;18.77;;;4.78;;
52946;SDS011;68773;40.400;17.260;2023-05-02T04:53:27;27.55;;;4.50;;
52946;SDS011;68773;40.400;17.260;2023-05-02T04:55:52;33.83;;;5.20;;
52946;SDS011;68773;40.400;17.260;2023-05-02T04:58:18;25.92;;;4.57;;
52946;SDS011;68773;40.400;17.260;2023-05-02T05:00:44;20.40;;;4.65;;
52946;SDS011;68773;40.400;17.260;2023-05-02T05:03:10;27.98;;;5.25;;
52946;SDS011;68773;40.400;17.260;2023-05-02T05:05:35;28.33;;;5.00;;
52946;SDS011;68773;40.400;17.260;2023-05-02T05:08:01;26.05;;;4.97;;
52946;SDS011;68773;40.400;17.260;2023-05-02T05:10:27;23.00;;;4.93;;
52946;SDS011;68773;40.400;17.260;2023-05-02T05:12:53;25.40;;;5.22;;
52946;SDS011;68773;40.400;17.260;2023-05-02T05:15:19;18.20;;;4.53;;
52946;SDS011;68773;40.400;17.260;2023-05-02T05:17:46;22.38;;;5.60;;
52946;SDS011;68773;40.400;17.260;2023-05-02T05:20:12;20.50;;;4.45;;
52946;SDS011;68773;40.400;17.260;2023-05-02T05:22:38;26.35;;;4.80;;
52946;SDS011;68773;40.400;17.260;2023-05-02T05:25:05;19.77;;;5.10;;
52946;SDS011;68773;40.400;17.260;2023-05-02T05:27:34;21.35;;;4.22;;
52946;SDS011;68773;40.400;17.260;2023-05-02T05:30:00;18.30;;;4.22;;
52946;SDS011;68773;40.400;17.260;2023-05-02T05:32:27;23.38;;;5.63;;
52946;SDS011;68773;40.400;17.260;2023-05-02T05:34:53;20.23;;;4.25;;
52946;SDS011;68773;40.400;17.260;2023-05-02T05:37:19;21.33;;;4.70;;
52946;SDS011;68773;40.400;17.260;2023-05-02T05:39:45;17.75;;;4.00;;
52946;SDS011;68773;40.400;17.260;2023-05-02T05:42:12;26.60;;;5.03;;
52946;SDS011;68773;40.400;17.260;2023-05-02T05:44:38;30.38;;;5.38;;
52946;SDS011;68773;40.400;17.260;2023-05-02T05:47:04;26.48;;;4.82;;
52946;SDS011;68773;40.400;17.260;2023-05-02T05:49:30;22.08;;;4.40;;
52946;SDS011;68773;40.400;17.260;2023-05-02T05:51:56;21.95;;;4.05;;
52946;SDS011;68773;40.400;17.260;2023-05-02T05:54:22;23.38;;;4.47;;
52946;SDS011;68773;40.400;17.260;2023-05-02T05:56:48;23.65;;;4.72;;
52946;SDS011;68773;40.400;17.260;2023-05-02T05:59:14;19.95;;;4.15;;
52946;SDS011;68773;40.400;17.260;2023-05-02T06:01:40;27.50;;;4.80;;
52946;SDS011;68773;40.400;17.260;2023-05-02T06:04:06;20.13;;;3.78;;
52946;SDS011;68773;40.400;17.260;2023-05-02T06:06:32;21.38;;;4.25;;
52946;SDS011;68773;40.400;17.260;2023-05-02T06:08:58;21.55;;;4.43;;
52946;SDS011;68773;40.400;17.260;2023-05-02T06:11:24;22.98;;;4.78;;
52946;SDS011;68773;40.400;17.260;2023-05-02T06:13:50;17.98;;;3.63;;
52946;SDS011;68773;40.400;17.260;2023-05-02T06:16:17;15.20;;;3.75;;
52946;SDS011;68773;40.400;17.260;2023-05-02T06:18:43;24.13;;;4.30;;
52946;SDS011;68773;40.400;17.260;2023-05-02T06:21:09;25.85;;;4.50;;
52946;SDS011;68773;40.400;17.260;2023-05-02T06:23:35;24.38;;;4.43;;
52946;SDS011;68773;40.400;17.260;2023-05-02T06:26:01;24.15;;;4.45;;
52946;SDS011;68773;40.400;17.260;2023-05-02T06:28:28;18.65;;;3.88;;
52946;SDS011;68773;40.400;17.260;2023-05-02T06:33:27;15.88;;;4.78;;
52946;SDS011;68773;40.400;17.260;2023-05-02T06:35:53;17.95;;;4.65;;
52946;SDS011;68773;40.400;17.260;2023-05-02T06:38:19;18.90;;;3.90;;
52946;SDS011;68773;40.400;17.260;2023-05-02T06:40:45;17.98;;;4.50;;
52946;SDS011;68773;40.400;17.260;2023-05-02T06:43:11;16.98;;;4.20;;
52946;SDS011;68773;40.400;17.260;2023-05-02T06:45:38;16.45;;;3.95;;
52946;SDS011;68773;40.400;17.260;2023-05-02T06:48:04;22.38;;;4.88;;
52946;SDS011;68773;40.400;17.260;2023-05-02T06:50:31;19.35;;;4.47;;
52946;SDS011;68773;40.400;17.260;2023-05-02T06:52:57;19.55;;;4.20;;
52946;SDS011;68773;40.400;17.260;2023-05-02T06:55:23;11.10;;;3.67;;
52946;SDS011;68773;40.400;17.260;2023-05-02T06:57:48;22.17;;;3.85;;
52946;SDS011;68773;40.400;17.260;2023-05-02T07:00:15;22.83;;;4.57;;
52946;SDS011;68773;40.400;17.260;2023-05-02T07:02:42;22.85;;;5.50;;
52946;SDS011;68773;40.400;17.260;2023-05-02T07:05:09;20.35;;;4.68;;
52946;SDS011;68773;40.400;17.260;2023-05-02T07:07:35;22.95;;;4.28;;
52946;SDS011;68773;40.400;17.260;2023-05-02T07:10:01;17.10;;;4.20;;
52946;SDS011;68773;40.400;17.260;2023-05-02T07:12:28;15.07;;;3.88;;
52946;SDS011;68773;40.400;17.260;2023-05-02T07:14:54;19.30;;;4.05;;
52946;SDS011;68773;40.400;17.260;2023-05-02T07:17:19;23.50;;;3.97;;
52946;SDS011;68773;40.400;17.260;2023-05-02T07:19:45;19.65;;;3.97;;
52946;SDS011;68773;40.400;17.260;2023-05-02T07:22:11;18.55;;;4.00;;
52946;SDS011;68773;40.400;17.260;2023-05-02T07:24:40;22.00;;;4.65;;
52946;SDS011;68773;40.400;17.260;2023-05-02T07:27:09;17.58;;;3.58;;
52946;SDS011;68773;40.400;17.260;2023-05-02T07:29:36;13.75;;;3.60;;
52946;SDS011;68773;40.400;17.260;2023-05-02T07:32:02;15.45;;;3.83;;
52946;SDS011;68773;40.400;17.260;2023-05-02T07:34:28;14.57;;;2.97;;
52946;SDS011;68773;40.400;17.260;2023-05-02T07:36:54;12.45;;;2.78;;
52946;SDS011;68773;40.400;17.260;2023-05-02T07:39:20;15.60;;;2.97;;
52946;SDS011;68773;40.400;17.260;2023-05-02T07:41:49;16.45;;;3.03;;
52946;SDS011;68773;40.400;17.260;2023-05-02T07:44:16;15.10;;;3.38;;
52946;SDS011;68773;40.400;17.260;2023-05-02T07:46:42;13.57;;;2.50;;
52946;SDS011;68773;40.400;17.260;2023-05-02T07:49:07;12.40;;;3.47;;
52946;SDS011;68773;40.400;17.260;2023-05-02T07:51:33;12.90;;;2.55;;
52946;SDS011;68773;40.400;17.260;2023-05-02T07:53:59;10.82;;;2.88;;
52946;SDS011;68773;40.400;17.260;2023-05-02T07:56:26;11.90;;;3.13;;
52946;SDS011;68773;40.400;17.260;2023-05-02T07:58:52;14.77;;;2.92;;
52946;SDS011;68773;40.400;17.260;2023-05-02T08:01:18;23.70;;;3.45;;
52946;SDS011;68773;40.400;17.260;2023-05-02T08:03:44;13.48;;;3.05;;
52946;SDS011;68773;40.400;17.260;2023-05-02T08:06:10;14.77;;;3.60;;
52946;SDS011;68773;40.400;17.260;2023-05-02T08:08:37;14.65;;;2.97;;
52946;SDS011;68773;40.400;17.260;2023-05-02T08:11:03;13.82;;;3.92;;
52946;SDS011;68773;40.400;17.260;2023-05-02T08:13:28;22.00;;;3.97;;
52946;SDS011;68773;40.400;17.260;2023-05-02T08:15:54;14.65;;;2.47;;
52946;SDS011;68773;40.400;17.260;2023-05-02T08:18:23;13.77;;;3.13;;
52946;SDS011;68773;40.400;17.260;2023-05-02T08:20:49;14.75;;;3.22;;
52946;SDS011;68773;40.400;17.260;2023-05-02T08:23:15;11.68;;;3.78;;
52946;SDS011;68773;40.400;17.260;2023-05-02T08:25:41;10.55;;;2.85;;
52946;SDS011;68773;40.400;17.260;2023-05-02T08:28:07;11.43;;;2.70;;
52946;SDS011;68773;40.400;17.260;2023-05-02T08:30:33;10.75;;;2.65;;
52946;SDS011;68773;40.400;17.260;2023-05-02T08:32:58;13.57;;;2.97;;
52946;SDS011;68773;40.400;17.260;2023-05-02T08:35:24;13.45;;;2.50;;
52946;SDS011;68773;40.400;17.260;2023-05-02T08:37:50;7.95;;;2.78;;
52946;SDS011;68773;40.400;17.260;2023-05-02T08:40:16;10.43;;;2.42;;
52946;SDS011;68773;40.400;17.260;2023-05-02T08:42:42;9.07;;;2.15;;
52946;SDS011;68773;40.400;17.260;2023-05-02T08:45:10;12.82;;;2.83;;
52946;SDS011;68773;40.400;17.260;2023-05-02T08:47:38;14.10;;;2.60;;
52946;SDS011;68773;40.400;17.260;2023-05-02T08:50:04;15.18;;;2.65;;
52946;SDS011;68773;40.400;17.260;2023-05-02T08:52:31;12.45;;;2.90;;
52946;SDS011;68773;40.400;17.260;2023-05-02T08:54:58;11.43;;;2.65;;
52946;SDS011;68773;40.400;17.260;2023-05-02T08:57:27;11.57;;;2.80;;
52946;SDS011;68773;40.400;17.260;2023-05-02T08:59:54;12.15;;;3.30;;
52946;SDS011;68773;40.400;17.260;2023-05-02T09:05:17;11.93;;;3.17;;
52946;SDS011;68773;40.400;17.260;2023-05-02T09:07:45;16.13;;;3.00;;
52946;SDS011;68773;40.400;17.260;2023-05-02T09:10:13;15.02;;;2.63;;
52946;SDS011;68773;40.400;17.260;2023-05-02T09:12:39;10.15;;;2.75;;
52946;SDS011;68773;40.400;17.260;2023-05-02T09:15:12;22.85;;;3.47;;
52946;SDS011;68773;40.400;17.260;2023-05-02T09:17:40;12.10;;;2.80;;
52946;SDS011;68773;40.400;17.260;2023-05-02T09:20:13;12.55;;;3.08;;
52946;SDS011;68773;40.400;17.260;2023-05-02T09:22:49;13.05;;;3.60;;
52946;SDS011;68773;40.400;17.260;2023-05-02T09:25:16;14.25;;;2.63;;
52946;SDS011;68773;40.400;17.260;2023-05-02T09:27:51;11.25;;;2.83;;
52946;SDS011;68773;40.400;17.260;2023-05-02T09:30:26;12.88;;;3.15;;
52946;SDS011;68773;40.400;17.260;2023-05-02T09:32:52;12.73;;;3.28;;
52946;SDS011;68773;40.400;17.260;2023-05-02T09:35:21;12.48;;;2.95;;
52946;SDS011;68773;40.400;17.260;2023-05-02T09:37:53;17.85;;;2.58;;
52946;SDS011;68773;40.400;17.260;2023-05-02T09:40:20;12.52;;;3.13;;
52946;SDS011;68773;40.400;17.260;2023-05-02T09:42:48;10.32;;;3.10;;
52946;SDS011;68773;40.400;17.260;2023-05-02T09:45:23;10.70;;;3.15;;
52946;SDS011;68773;40.400;17.260;2023-05-02T09:47:50;11.68;;;3.20;;
52946;SDS011;68773;40.400;17.260;2023-05-02T09:50:30;9.35;;;2.67;;
52946;SDS011;68773;40.400;17.260;2023-05-02T09:53:03;9.15;;;2.67;;
52946;SDS011;68773;40.400;17.260;2023-05-02T09:55:31;11.45;;;3.00;;
52946;SDS011;68773;40.400;17.260;2023-05-02T09:57:57;7.72;;;2.15;;
52946;SDS011;68773;40.400;17.260;2023-05-02T10:00:39;8.82;;;2.78;;
52946;SDS011;68773;40.400;17.260;2023-05-02T10:03:06;11.10;;;3.00;;
52946;SDS011;68773;40.400;17.260;2023-05-02T10:05:36;13.88;;;3.30;;
52946;SDS011;68773;40.400;17.260;2023-05-02T10:08:06;8.30;;;2.60;;
52946;SDS011;68773;40.400;17.260;2023-05-02T10:10:36;8.40;;;3.05;;
52946;SDS011;68773;40.400;17.260;2023-05-02T10:13:09;7.20;;;2.60;;
52946;SDS011;68773;40.400;17.260;2023-05-02T10:15:41;8.90;;;2.65;;
52946;SDS011;68773;40.400;17.260;2023-05-02T10:18:10;16.70;;;3.22;;
52946;SDS011;68773;40.400;17.260;2023-05-02T10:21:04;8.85;;;2.40;;
52946;SDS011;68773;40.400;17.260;2023-05-02T10:23:30;5.95;;;2.30;;
52946;SDS011;68773;40.400;17.260;2023-05-02T10:25:57;7.57;;;2.70;;
52946;SDS011;68773;40.400;17.260;2023-05-02T10:28:23;10.10;;;3.25;;
52946;SDS011;68773;40.400;17.260;2023-05-02T10:30:54;4.63;;;2.55;;
52946;SDS011;68773;40.400;17.260;2023-05-02T10:33:21;11.45;;;2.88;;
52946;SDS011;68773;40.400;17.260;2023-05-02T10:35:47;8.88;;;2.67;;
52946;SDS011;68773;40.400;17.260;2023-05-02T10:38:15;6.07;;;2.13;;
52946;SDS011;68773;40.400;17.260;2023-05-02T10:43:20;8.45;;;2.53;;
52946;SDS011;68773;40.400;17.260;2023-05-02T10:45:51;6.15;;;3.00;;
52946;SDS011;68773;40.400;17.260;2023-05-02T10:48:21;10.90;;;2.90;;
52946;SDS011;68773;40.400;17.260;2023-05-02T10:50:57;10.90;;;2.92;;
52946;SDS011;68773;40.400;17.260;2023-05-02T10:53:28;12.27;;;2.90;;
52946;SDS011;68773;40.400;17.260;2023-05-02T10:58:45;6.78;;;3.20;;
52946;SDS011;68773;40.400;17.260;2023-05-02T11:04:13;9.77;;;2.90;;
52946;SDS011;68773;40.400;17.260;2023-05-02T11:11:53;11.05;;;3.53;;
52946;SDS011;68773;40.400;17.260;2023-05-02T11:19:28;9.65;;;3.80;;
52946;SDS011;68773;40.400;17.260;2023-05-02T11:24:45;15.38;;;4.32;;
52946;SDS011;68773;40.400;17.260;2023-05-02T11:29:58;8.02;;;4.13;;
52946;SDS011;68773;40.400;17.260;2023-05-02T11:37:45;13.38;;;4.47;;
52946;SDS011;68773;40.400;17.260;2023-05-02T11:40:17;11.48;;;4.03;;
52946;SDS011;68773;40.400;17.260;2023-05-02T11:42:43;12.32;;;4.45;;
52946;SDS011;68773;40.400;17.260;2023-05-02T11:45:09;12.70;;;4.18;;
52946;SDS011;68773;40.400;17.260;2023-05-02T11:47:35;11.25;;;4.72;;
52946;SDS011;68773;40.400;17.260;2023-05-02T11:50:04;11.35;;;4.55;;
52946;SDS011;68773;40.400;17.260;2023-05-02T11:52:35;12.82;;;5.00;;
52946;SDS011;68773;40.400;17.260;2023-05-02T11:55:03;14.75;;;4.45;;
52946;SDS011;68773;40.400;17.260;2023-05-02T11:57:34;9.68;;;4.03;;
52946;SDS011;68773;40.400;17.260;2023-05-02T12:00:00;12.35;;;4.38;;
52946;SDS011;68773;40.400;17.260;2023-05-02T12:02:35;15.50;;;4.90;;
52946;SDS011;68773;40.400;17.260;2023-05-02T12:05:06;8.65;;;3.58;;
52946;SDS011;68773;40.400;17.260;2023-05-02T12:07:37;16.35;;;4.30;;
52946;SDS011;68773;40.400;17.260;2023-05-02T12:10:04;14.23;;;4.18;;
52946;SDS011;68773;40.400;17.260;2023-05-02T12:12:31;16.02;;;4.50;;
52946;SDS011;68773;40.400;17.260;2023-05-02T12:14:57;9.18;;;3.13;;
52946;SDS011;68773;40.400;17.260;2023-05-02T12:17:23;10.52;;;3.58;;
52946;SDS011;68773;40.400;17.260;2023-05-02T12:19:49;8.02;;;2.95;;
52946;SDS011;68773;40.400;17.260;2023-05-02T12:22:15;8.98;;;3.15;;
52946;SDS011;68773;40.400;17.260;2023-05-02T12:24:42;13.00;;;3.88;;
52946;SDS011;68773;40.400;17.260;2023-05-02T12:27:09;10.38;;;3.30;;
52946;SDS011;68773;40.400;17.260;2023-05-02T12:29:41;9.45;;;3.38;;
52946;SDS011;68773;40.400;17.260;2023-05-02T12:32:09;9.07;;;3.25;;
52946;SDS011;68773;40.400;17.260;2023-05-02T12:34:36;8.20;;;3.38;;
52946;SDS011;68773;40.400;17.260;2023-05-02T12:40:13;7.03;;;3.45;;
52946;SDS011;68773;40.400;17.260;2023-05-02T12:42:40;10.70;;;3.70;;
52946;SDS011;68773;40.400;17.260;2023-05-02T12:48:28;8.43;;;3.63;;
52946;SDS011;68773;40.400;17.260;2023-05-02T12:50:55;8.32;;;2.97;;
52946;SDS011;68773;40.400;17.260;2023-05-02T12:53:37;13.80;;;3.70;;
52946;SDS011;68773;40.400;17.260;2023-05-02T12:56:04;10.10;;;3.83;;
52946;SDS011;68773;40.400;17.260;2023-05-02T12:58:37;9.68;;;3.40;;
52946;SDS011;68773;40.400;17.260;2023-05-02T13:01:08;9.98;;;3.42;;
52946;SDS011;68773;40.400;17.260;2023-05-02T13:03:34;11.38;;;3.83;;
52946;SDS011;68773;40.400;17.260;2023-05-02T13:06:00;11.50;;;3.65;;
52946;SDS011;68773;40.400;17.260;2023-05-02T13:08:26;9.75;;;3.60;;
52946;SDS011;68773;40.400;17.260;2023-05-02T13:10:52;8.50;;;3.42;;
52946;SDS011;68773;40.400;17.260;2023-05-02T13:13:18;12.68;;;4.40;;
52946;SDS011;68773;40.400;17.260;2023-05-02T13:16:02;11.85;;;3.55;;
52946;SDS011;68773;40.400;17.260;2023-05-02T13:21:49;9.98;;;3.92;;
52946;SDS011;68773;40.400;17.260;2023-05-02T13:24:15;9.77;;;4.00;;
52946;SDS011;68773;40.400;17.260;2023-05-02T13:26:41;11.20;;;3.95;;
52946;SDS011;68773;40.400;17.260;2023-05-02T13:29:08;9.52;;;4.20;;
52946;SDS011;68773;40.400;17.260;2023-05-02T13:31:36;13.32;;;3.95;;
52946;SDS011;68773;40.400;17.260;2023-05-02T13:34:05;11.32;;;4.75;;
52946;SDS011;68773;40.400;17.260;2023-05-02T13:36:31;11.82;;;4.03;;
52946;SDS011;68773;40.400;17.260;2023-05-02T13:38:56;14.50;;;3.60;;
52946;SDS011;68773;40.400;17.260;2023-05-02T13:41:22;14.43;;;4.20;;
52946;SDS011;68773;40.400;17.260;2023-05-02T13:43:50;13.50;;;3.55;;
52946;SDS011;68773;40.400;17.260;2023-05-02T13:46:16;15.20;;;3.78;;
52946;SDS011;68773;40.400;17.260;2023-05-02T13:48:42;10.23;;;3.00;;
52946;SDS011;68773;40.400;17.260;2023-05-02T13:51:07;9.88;;;3.78;;
52946;SDS011;68773;40.400;17.260;2023-05-02T13:53:33;10.00;;;3.00;;
52946;SDS011;68773;40.400;17.260;2023-05-02T13:55:59;14.23;;;2.78;;
52946;SDS011;68773;40.400;17.260;2023-05-02T13:58:25;9.93;;;2.60;;
52946;SDS011;68773;40.400;17.260;2023-05-02T14:00:51;9.15;;;2.67;;
52946;SDS011;68773;40.400;17.260;2023-05-02T14:03:17;10.25;;;2.50;;
52946;SDS011;68773;40.400;17.260;2023-05-02T14:05:43;7.03;;;2.40;;
52946;SDS011;68773;40.400;17.260;2023-05-02T14:08:12;5.10;;;2.20;;
52946;SDS011;68773;40.400;17.260;2023-05-02T14:10:42;6.75;;;2.22;;
52946;SDS011;68773;40.400;17.260;2023-05-02T14:13:08;9.38;;;2.22;;
52946;SDS011;68773;40.400;17.260;2023-05-02T14:15:34;11.25;;;2.42;;
52946;SDS011;68773;40.400;17.260;2023-05-02T14:18:01;12.60;;;4.15;;
52946;SDS011;68773;40.400;17.260;2023-05-02T14:20:27;8.18;;;2.75;;
52946;SDS011;68773;40.400;17.260;2023-05-02T14:22:53;7.90;;;2.30;;
52946;SDS011;68773;40.400;17.260;2023-05-02T14:25:19;5.97;;;2.53;;
52946;SDS011;68773;40.400;17.260;2023-05-02T14:27:45;6.55;;;2.70;;
52946;SDS011;68773;40.400;17.260;2023-05-02T14:30:11;8.57;;;2.42;;
52946;SDS011;68773;40.400;17.260;2023-05-02T14:32:37;8.00;;;2.50;;
52946;SDS011;68773;40.400;17.260;2023-05-02T14:35:02;9.75;;;2.83;;
52946;SDS011;68773;40.400;17.260;2023-05-02T14:37:28;8.80;;;2.50;;
52946;SDS011;68773;40.400;17.260;2023-05-02T14:39:54;8.05;;;2.35;;
52946;SDS011;68773;40.400;17.260;2023-05-02T14:42:23;6.38;;;2.70;;
52946;SDS011;68773;40.400;17.260;2023-05-02T14:44:49;6.70;;;2.70;;
52946;SDS011;68773;40.400;17.260;2023-05-02T14:47:16;9.82;;;2.30;;
52946;SDS011;68773;40.400;17.260;2023-05-02T14:49:42;5.15;;;1.95;;
52946;SDS011;68773;40.400;17.260;2023-05-02T14:52:08;6.20;;;2.10;;
52946;SDS011;68773;40.400;17.260;2023-05-02T14:54:33;4.72;;;1.60;;
52946;SDS011;68773;40.400;17.260;2023-05-02T14:57:00;5.95;;;2.00;;
52946;SDS011;68773;40.400;17.260;2023-05-02T14:59:28;4.88;;;2.40;;
52946;SDS011;68773;40.400;17.260;2023-05-02T15:01:54;3.22;;;1.88;;
52946;SDS011;68773;40.400;17.260;2023-05-02T15:04:20;5.93;;;2.10;;
52946;SDS011;68773;40.400;17.260;2023-05-02T15:06:45;6.05;;;1.90;;
52946;SDS011;68773;40.400;17.260;2023-05-02T15:09:12;7.90;;;2.30;;
52946;SDS011;68773;40.400;17.260;2023-05-02T15:11:38;6.15;;;2.70;;
52946;SDS011;68773;40.400;17.260;2023-05-02T15:14:04;9.75;;;2.20;;
52946;SDS011;68773;40.400;17.260;2023-05-02T15:16:30;5.20;;;2.50;;
52946;SDS011;68773;40.400;17.260;2023-05-02T15:18:56;5.13;;;2.35;;
52946;SDS011;68773;40.400;17.260;2023-05-02T15:21:21;4.57;;;2.50;;
52946;SDS011;68773;40.400;17.260;2023-05-02T15:23:47;6.55;;;2.40;;
52946;SDS011;68773;40.400;17.260;2023-05-02T15:29:06;70.05;;;8.23;;
52946;SDS011;68773;40.400;17.260;2023-05-02T15:31:32;10.00;;;3.42;;
52946;SDS011;68773;40.400;17.260;2023-05-02T15:37:20;4.97;;;2.30;;